createdAt,value
2022-09-10T00:00:23.000Z,0.00
2022-09-10T00:00:44.000Z,0.00
2022-09-10T00:01:07.000Z,0.00
2022-09-10T00:01:42.000Z,0.00
2022-09-10T00:02:12.000Z,0.00
2022-09-10T00:02:48.000Z,0.00
2022-09-10T00:03:17.000Z,0.00
2022-09-10T00:03:47.000Z,0.00
2022-09-10T00:04:32.000Z,0.00
2022-09-10T00:05:02.000Z,0.00
2022-09-10T00:05:28.000Z,0.00
2022-09-10T00:05:57.000Z,0.00
2022-09-10T00:06:27.000Z,0.00
2022-09-10T00:07:02.000Z,0.00
2022-09-10T00:07:32.000Z,0.00
2022-09-10T00:08:03.000Z,0.00
2022-09-10T00:08:23.000Z,0.00
2022-09-10T00:08:44.000Z,0.00
2022-09-10T00:09:07.000Z,0.00
2022-09-10T00:09:42.000Z,0.00
2022-09-10T00:10:13.000Z,0.00
2022-09-10T00:10:47.000Z,0.00
2022-09-10T00:11:17.000Z,0.00
2022-09-10T00:11:47.000Z,0.00
2022-09-10T00:12:22.000Z,0.00
2022-09-10T00:12:44.000Z,0.00
2022-09-10T00:13:17.000Z,0.00
2022-09-10T00:13:42.000Z,0.00
2022-09-10T00:14:12.000Z,0.00
2022-09-10T00:14:47.000Z,0.00
2022-09-10T00:15:18.000Z,0.00
2022-09-10T00:15:47.000Z,0.00
2022-09-10T00:16:23.000Z,0.00
2022-09-10T00:16:44.000Z,0.00
2022-09-10T00:17:07.000Z,0.00
2022-09-10T00:17:43.000Z,0.00
2022-09-10T00:18:12.000Z,0.00
2022-09-10T00:18:47.000Z,0.00
2022-09-10T00:19:17.000Z,0.00
2022-09-10T00:19:48.000Z,0.00
2022-09-10T00:20:22.000Z,0.00
2022-09-10T00:20:44.000Z,0.00
2022-09-10T00:21:07.000Z,0.00
2022-09-10T00:21:39.000Z,0.00
2022-09-10T00:22:04.000Z,0.00
2022-09-10T00:22:28.000Z,0.00
2022-09-10T00:22:57.000Z,0.00
2022-09-10T00:23:31.000Z,0.00
2022-09-10T00:23:57.000Z,0.00
2022-09-10T00:24:22.000Z,0.00
2022-09-10T00:24:44.000Z,0.00
2022-09-10T00:25:07.000Z,0.00
2022-09-10T00:25:42.000Z,0.00
2022-09-10T00:26:12.000Z,0.00
2022-09-10T00:26:47.000Z,0.00
2022-09-10T00:27:17.000Z,0.00
2022-09-10T00:27:47.000Z,0.00
2022-09-10T00:28:23.000Z,0.00
2022-09-10T00:28:44.000Z,0.00
2022-09-10T00:29:07.000Z,0.00
2022-09-10T00:29:43.000Z,0.00
2022-09-10T00:30:12.000Z,0.00
2022-09-10T00:30:48.000Z,0.00
2022-09-10T00:31:17.000Z,0.00
2022-09-10T00:31:47.000Z,0.00
2022-09-10T00:32:32.000Z,0.00
2022-09-10T00:33:02.000Z,0.00
2022-09-10T00:33:29.000Z,0.00
2022-09-10T00:33:52.000Z,0.00
2022-09-10T00:34:12.000Z,0.00
2022-09-10T00:34:47.000Z,0.00
2022-09-10T00:35:17.000Z,0.00
2022-09-10T00:35:47.000Z,0.00
2022-09-10T00:36:23.000Z,0.00
2022-09-10T00:36:44.000Z,0.00
2022-09-10T00:37:07.000Z,0.00
2022-09-10T00:37:42.000Z,0.00
2022-09-10T00:38:12.000Z,0.00
2022-09-10T00:38:47.000Z,0.00
2022-09-10T00:39:17.000Z,0.00
2022-09-10T00:39:47.000Z,0.00
2022-09-10T00:40:22.000Z,0.00
2022-09-10T00:40:44.000Z,0.00
2022-09-10T00:41:07.000Z,0.00
2022-09-10T00:41:28.000Z,0.00
2022-09-10T00:41:55.000Z,0.00
2022-09-10T00:42:22.000Z,0.00
2022-09-10T00:42:49.000Z,0.00
2022-09-10T00:43:17.000Z,0.00
2022-09-10T00:43:47.000Z,0.00
2022-09-10T00:44:03.000Z,0.00
2022-09-10T00:44:22.000Z,0.00
2022-09-10T00:44:44.000Z,0.00
2022-09-10T00:45:07.000Z,0.00
2022-09-10T00:45:27.000Z,0.00
2022-09-10T00:45:49.000Z,0.00
2022-09-10T00:46:12.000Z,0.00
2022-09-10T00:46:48.000Z,0.00
2022-09-10T00:47:18.000Z,0.00
2022-09-10T00:47:47.000Z,0.00
2022-09-10T00:48:03.000Z,0.00
2022-09-10T00:48:22.000Z,0.00
2022-09-10T00:48:44.000Z,0.00
2022-09-10T00:49:07.000Z,0.00
2022-09-10T00:49:28.000Z,0.00
2022-09-10T00:49:58.000Z,0.00
2022-09-10T00:50:28.000Z,0.00
2022-09-10T00:51:12.000Z,0.00
2022-09-10T00:51:42.000Z,0.00
2022-09-10T00:52:08.000Z,0.00
2022-09-10T00:52:37.000Z,0.00
2022-09-10T00:53:07.000Z,0.00
2022-09-10T00:53:42.000Z,0.00
2022-09-10T00:54:12.000Z,0.00
2022-09-10T00:54:47.000Z,0.00
2022-09-10T00:55:17.000Z,0.00
2022-09-10T00:55:47.000Z,0.00
2022-09-10T00:56:23.000Z,0.00
2022-09-10T00:56:44.000Z,0.00
2022-09-10T00:57:08.000Z,0.00
2022-09-10T00:57:43.000Z,0.00
2022-09-10T00:58:12.000Z,0.00
2022-09-10T00:58:47.000Z,0.00
2022-09-10T00:59:17.000Z,0.00
2022-09-10T00:59:47.000Z,0.00
2022-09-10T01:00:23.000Z,0.00
2022-09-10T01:00:44.000Z,0.00
2022-09-10T01:01:07.000Z,0.00
2022-09-10T01:01:43.000Z,0.00
2022-09-10T01:02:12.000Z,0.00
2022-09-10T01:02:48.000Z,0.00
2022-09-10T01:03:17.000Z,0.00
2022-09-10T01:03:48.000Z,0.00
2022-09-10T01:04:22.000Z,0.00
2022-09-10T01:04:44.000Z,0.00
2022-09-10T01:05:07.000Z,0.00
2022-09-10T01:05:42.000Z,0.00
2022-09-10T01:06:13.000Z,0.00
2022-09-10T01:06:47.000Z,0.00
2022-09-10T01:07:17.000Z,0.00
2022-09-10T01:07:47.000Z,0.00
2022-09-10T01:08:22.000Z,0.00
2022-09-10T01:08:44.000Z,0.00
2022-09-10T01:09:07.000Z,0.00
2022-09-10T01:09:42.000Z,0.00
2022-09-10T01:10:12.000Z,0.00
2022-09-10T01:10:47.000Z,0.00
2022-09-10T01:11:18.000Z,0.00
2022-09-10T01:11:47.000Z,0.00
2022-09-10T01:12:22.000Z,0.00
2022-09-10T01:12:44.000Z,0.00
2022-09-10T01:13:07.000Z,0.00
2022-09-10T01:13:43.000Z,0.00
2022-09-10T01:14:12.000Z,0.00
2022-09-10T01:14:47.000Z,0.00
2022-09-10T01:15:17.000Z,0.00
2022-09-10T01:15:47.000Z,0.00
2022-09-10T01:16:22.000Z,0.00
2022-09-10T01:16:47.000Z,0.00
2022-09-10T01:17:12.000Z,0.00
2022-09-10T01:17:42.000Z,0.00
2022-09-10T01:18:12.000Z,0.00
2022-09-10T01:18:47.000Z,0.00
2022-09-10T01:19:18.000Z,0.00
2022-09-10T01:19:47.000Z,0.00
2022-09-10T01:20:23.000Z,0.00
2022-09-10T01:20:44.000Z,0.00
2022-09-10T01:21:07.000Z,0.00
2022-09-10T01:21:43.000Z,0.00
2022-09-10T01:22:12.000Z,0.00
2022-09-10T01:22:47.000Z,0.00
2022-09-10T01:23:17.000Z,0.00
2022-09-10T01:23:47.000Z,0.00
2022-09-10T01:24:22.000Z,0.00
2022-09-10T01:24:44.000Z,0.00
2022-09-10T01:25:08.000Z,0.00
2022-09-10T01:25:39.000Z,0.00
2022-09-10T01:26:12.000Z,0.00
2022-09-10T01:26:57.000Z,0.00
2022-09-10T01:27:20.000Z,0.00
2022-09-10T01:27:47.000Z,0.00
2022-09-10T01:28:12.000Z,0.00
2022-09-10T01:28:38.000Z,0.00
2022-09-10T01:29:13.000Z,0.00
2022-09-10T01:29:52.000Z,0.00
2022-09-10T01:30:13.000Z,0.00
2022-09-10T01:30:47.000Z,0.00
2022-09-10T01:31:17.000Z,0.00
2022-09-10T01:31:47.000Z,0.00
2022-09-10T01:32:22.000Z,0.00
2022-09-10T01:32:44.000Z,0.00
2022-09-10T01:33:07.000Z,0.00
2022-09-10T01:33:42.000Z,0.00
2022-09-10T01:34:12.000Z,0.00
2022-09-10T01:34:47.000Z,0.00
2022-09-10T01:35:17.000Z,0.00
2022-09-10T01:35:47.000Z,0.00
2022-09-10T01:36:22.000Z,0.00
2022-09-10T01:36:44.000Z,0.00
2022-09-10T01:37:07.000Z,0.00
2022-09-10T01:37:42.000Z,0.00
2022-09-10T01:38:12.000Z,0.00
2022-09-10T01:38:47.000Z,0.00
2022-09-10T01:39:17.000Z,0.00
2022-09-10T01:39:47.000Z,0.00
2022-09-10T01:40:22.000Z,0.00
2022-09-10T01:40:44.000Z,0.00
2022-09-10T01:41:07.000Z,0.00
2022-09-10T01:41:43.000Z,0.00
2022-09-10T01:42:12.000Z,0.00
2022-09-10T01:42:47.000Z,0.00
2022-09-10T01:43:17.000Z,0.00
2022-09-10T01:43:47.000Z,0.00
2022-09-10T01:44:22.000Z,0.00
2022-09-10T01:44:44.000Z,0.00
2022-09-10T01:45:07.000Z,0.00
2022-09-10T01:45:42.000Z,0.00
2022-09-10T01:46:12.000Z,0.00
2022-09-10T01:46:57.000Z,0.00
2022-09-10T01:47:18.000Z,0.00
2022-09-10T01:47:47.000Z,0.00
2022-09-10T01:48:02.000Z,0.00
2022-09-10T01:48:37.000Z,0.00
2022-09-10T01:49:07.000Z,0.00
2022-09-10T01:49:28.000Z,0.00
2022-09-10T01:49:57.000Z,0.00
2022-09-10T01:50:27.000Z,0.00
2022-09-10T01:51:02.000Z,0.00
2022-09-10T01:51:32.000Z,0.00
2022-09-10T01:52:03.000Z,0.00
2022-09-10T01:52:22.000Z,0.00
2022-09-10T01:52:44.000Z,0.00
2022-09-10T01:53:07.000Z,0.00
2022-09-10T01:53:42.000Z,0.00
2022-09-10T01:54:12.000Z,0.00
2022-09-10T01:54:47.000Z,0.00
2022-09-10T01:55:27.000Z,0.00
2022-09-10T01:55:48.000Z,0.00
2022-09-10T01:56:23.000Z,0.00
2022-09-10T01:56:44.000Z,0.00
2022-09-10T01:57:07.000Z,0.00
2022-09-10T01:57:43.000Z,0.00
2022-09-10T01:58:12.000Z,0.00
2022-09-10T01:58:47.000Z,0.00
2022-09-10T01:59:17.000Z,0.00
2022-09-10T01:59:47.000Z,0.00
2022-09-10T02:00:23.000Z,0.00
2022-09-10T02:00:44.000Z,0.00
2022-09-10T02:01:07.000Z,0.00
2022-09-10T02:01:42.000Z,0.00
2022-09-10T02:02:13.000Z,0.00
2022-09-10T02:02:47.000Z,0.00
2022-09-10T02:03:14.000Z,0.00
2022-09-10T02:03:32.000Z,0.00
2022-09-10T02:03:48.000Z,0.00
2022-09-10T02:04:22.000Z,0.00
2022-09-10T02:04:45.000Z,0.00
2022-09-10T02:05:07.000Z,0.00
2022-09-10T02:05:43.000Z,0.00
2022-09-10T02:06:12.000Z,0.00
2022-09-10T02:06:47.000Z,0.00
2022-09-10T02:07:17.000Z,0.00
2022-09-10T02:07:47.000Z,0.00
2022-09-10T02:08:22.000Z,0.00
2022-09-10T02:08:45.000Z,0.00
2022-09-10T02:09:08.000Z,0.00
2022-09-10T02:09:42.000Z,0.00
2022-09-10T02:10:12.000Z,0.00
2022-09-10T02:10:48.000Z,0.00
2022-09-10T02:11:17.000Z,0.00
2022-09-10T02:11:47.000Z,0.00
2022-09-10T02:12:23.000Z,0.00
2022-09-10T02:12:44.000Z,0.00
2022-09-10T02:13:07.000Z,0.00
2022-09-10T02:13:42.000Z,0.00
2022-09-10T02:14:12.000Z,0.00
2022-09-10T02:14:47.000Z,0.00
2022-09-10T02:15:17.000Z,0.00
2022-09-10T02:15:47.000Z,0.00
2022-09-10T02:16:22.000Z,0.00
2022-09-10T02:16:44.000Z,0.00
2022-09-10T02:17:07.000Z,0.00
2022-09-10T02:17:42.000Z,0.00
2022-09-10T02:18:12.000Z,0.00
2022-09-10T02:18:47.000Z,0.00
2022-09-10T02:19:17.000Z,0.00
2022-09-10T02:19:47.000Z,0.00
2022-09-10T02:20:22.000Z,0.00
2022-09-10T02:20:44.000Z,0.00
2022-09-10T02:21:07.000Z,0.00
2022-09-10T02:21:42.000Z,0.00
2022-09-10T02:22:12.000Z,0.00
2022-09-10T02:22:47.000Z,0.00
2022-09-10T02:23:17.000Z,0.00
2022-09-10T02:23:47.000Z,0.00
2022-09-10T02:24:22.000Z,0.00
2022-09-10T02:24:44.000Z,0.00
2022-09-10T02:25:07.000Z,0.00
2022-09-10T02:25:43.000Z,0.00
2022-09-10T02:26:12.000Z,0.00
2022-09-10T02:26:47.000Z,0.00
2022-09-10T02:27:17.000Z,0.00
2022-09-10T02:27:47.000Z,0.00
2022-09-10T02:28:23.000Z,0.00
2022-09-10T02:28:44.000Z,0.00
2022-09-10T02:29:07.000Z,0.00
2022-09-10T02:29:38.000Z,0.00
2022-09-10T02:30:12.000Z,0.00
2022-09-10T02:30:57.000Z,0.00
2022-09-10T02:31:27.000Z,0.00
2022-09-10T02:31:57.000Z,0.00
2022-09-10T02:32:22.000Z,0.00
2022-09-10T02:32:47.000Z,0.00
2022-09-10T02:33:10.000Z,0.00
2022-09-10T02:33:38.000Z,0.00
2022-09-10T02:34:03.000Z,0.00
2022-09-10T02:34:28.000Z,0.00
2022-09-10T02:34:58.000Z,0.00
2022-09-10T02:35:27.000Z,0.00
2022-09-10T02:35:47.000Z,0.00
2022-09-10T02:36:22.000Z,0.00
2022-09-10T02:36:44.000Z,0.00
2022-09-10T02:37:07.000Z,0.00
2022-09-10T02:37:42.000Z,0.00
2022-09-10T02:38:12.000Z,0.00
2022-09-10T02:38:47.000Z,0.00
2022-09-10T02:39:17.000Z,0.00
2022-09-10T02:39:48.000Z,0.00
2022-09-10T02:40:19.000Z,0.00
2022-09-10T02:40:44.000Z,0.00
2022-09-10T02:41:07.000Z,0.00
2022-09-10T02:41:43.000Z,0.00
2022-09-10T02:42:12.000Z,0.00
2022-09-10T02:42:47.000Z,0.00
2022-09-10T02:43:17.000Z,0.00
2022-09-10T02:43:47.000Z,0.00
2022-09-10T02:44:22.000Z,0.00
2022-09-10T02:44:44.000Z,0.00
2022-09-10T02:45:07.000Z,0.00
2022-09-10T02:45:42.000Z,0.00
2022-09-10T02:46:12.000Z,0.00
2022-09-10T02:46:47.000Z,0.00
2022-09-10T02:47:17.000Z,0.00
2022-09-10T02:47:47.000Z,0.00
2022-09-10T02:48:23.000Z,0.00
2022-09-10T02:48:44.000Z,0.00
2022-09-10T02:49:07.000Z,0.00
2022-09-10T02:49:42.000Z,0.00
2022-09-10T02:50:12.000Z,0.00
2022-09-10T02:50:47.000Z,0.00
2022-09-10T02:51:17.000Z,0.00
2022-09-10T02:51:47.000Z,0.00
2022-09-10T02:52:32.000Z,0.00
2022-09-10T02:53:02.000Z,0.00
2022-09-10T02:53:28.000Z,0.00
2022-09-10T02:53:57.000Z,0.00
2022-09-10T02:54:27.000Z,0.00
2022-09-10T02:55:02.000Z,0.00
2022-09-10T02:55:32.000Z,0.00
2022-09-10T02:56:02.000Z,0.00
2022-09-10T02:56:23.000Z,0.00
2022-09-10T02:56:44.000Z,0.00
2022-09-10T02:57:07.000Z,0.00
2022-09-10T02:57:42.000Z,0.00
2022-09-10T02:58:12.000Z,0.00
2022-09-10T02:58:47.000Z,0.00
2022-09-10T02:59:17.000Z,0.00
2022-09-10T02:59:47.000Z,0.00
2022-09-10T03:00:23.000Z,0.00
2022-09-10T03:00:44.000Z,0.00
2022-09-10T03:01:07.000Z,0.00
2022-09-10T03:01:52.000Z,0.00
2022-09-10T03:02:32.000Z,0.00
2022-09-10T03:03:02.000Z,0.00
2022-09-10T03:03:32.000Z,0.00
2022-09-10T03:04:02.000Z,0.00
2022-09-10T03:04:22.000Z,0.00
2022-09-10T03:04:44.000Z,0.00
2022-09-10T03:05:07.000Z,0.00
2022-09-10T03:05:42.000Z,0.00
2022-09-10T03:06:12.000Z,0.00
2022-09-10T03:06:47.000Z,0.00
2022-09-10T03:07:17.000Z,0.00
2022-09-10T03:07:47.000Z,0.00
2022-09-10T03:08:22.000Z,0.00
2022-09-10T03:08:44.000Z,0.00
2022-09-10T03:09:07.000Z,0.00
2022-09-10T03:09:42.000Z,0.00
2022-09-10T03:10:12.000Z,0.00
2022-09-10T03:10:47.000Z,0.00
2022-09-10T03:11:18.000Z,0.00
2022-09-10T03:11:42.000Z,0.00
2022-09-10T03:12:08.000Z,0.00
2022-09-10T03:12:34.000Z,0.00
2022-09-10T03:12:52.000Z,0.00
2022-09-10T03:13:27.000Z,0.00
2022-09-10T03:13:55.000Z,0.00
2022-09-10T03:14:27.000Z,0.00
2022-09-10T03:15:02.000Z,0.00
2022-09-10T03:15:32.000Z,0.00
2022-09-10T03:15:48.000Z,0.00
2022-09-10T03:16:18.000Z,0.00
2022-09-10T03:16:44.000Z,0.00
2022-09-10T03:17:07.000Z,0.00
2022-09-10T03:17:42.000Z,0.00
2022-09-10T03:18:12.000Z,0.00
2022-09-10T03:18:47.000Z,0.00
2022-09-10T03:19:17.000Z,0.00
2022-09-10T03:19:47.000Z,0.00
2022-09-10T03:20:23.000Z,0.00
2022-09-10T03:20:44.000Z,0.00
2022-09-10T03:21:12.000Z,0.00
2022-09-10T03:21:38.000Z,0.00
2022-09-10T03:22:03.000Z,0.00
2022-09-10T03:22:27.000Z,0.00
2022-09-10T03:23:02.000Z,0.00
2022-09-10T03:23:33.000Z,0.00
2022-09-10T03:24:02.000Z,0.00
2022-09-10T03:24:23.000Z,0.00
2022-09-10T03:24:44.000Z,0.00
2022-09-10T03:25:07.000Z,0.00
2022-09-10T03:25:42.000Z,0.00
2022-09-10T03:26:12.000Z,0.00
2022-09-10T03:26:47.000Z,0.00
2022-09-10T03:27:17.000Z,0.00
2022-09-10T03:27:47.000Z,0.00
2022-09-10T03:28:18.000Z,0.00
2022-09-10T03:28:44.000Z,0.00
2022-09-10T03:29:07.000Z,0.00
2022-09-10T03:29:42.000Z,0.00
2022-09-10T03:30:12.000Z,0.00
2022-09-10T03:30:48.000Z,0.00
2022-09-10T03:31:18.000Z,0.00
2022-09-10T03:31:47.000Z,0.00
2022-09-10T03:32:22.000Z,0.00
2022-09-10T03:32:44.000Z,0.00
2022-09-10T03:33:07.000Z,0.00
2022-09-10T03:33:42.000Z,0.00
2022-09-10T03:34:12.000Z,0.00
2022-09-10T03:34:47.000Z,0.00
2022-09-10T03:35:17.000Z,0.00
2022-09-10T03:35:47.000Z,0.00
2022-09-10T03:36:23.000Z,0.00
2022-09-10T03:36:44.000Z,0.00
2022-09-10T03:37:07.000Z,0.00
2022-09-10T03:37:42.000Z,0.00
2022-09-10T03:38:12.000Z,0.00
2022-09-10T03:38:47.000Z,0.00
2022-09-10T03:39:14.000Z,0.00
2022-09-10T03:39:42.000Z,0.00
2022-09-10T03:40:08.000Z,0.00
2022-09-10T03:40:37.000Z,0.00
2022-09-10T03:41:07.000Z,0.00
2022-09-10T03:41:27.000Z,0.00
2022-09-10T03:41:57.000Z,0.00
2022-09-10T03:42:27.000Z,0.00
2022-09-10T03:43:02.000Z,0.00
2022-09-10T03:43:32.000Z,0.00
2022-09-10T03:43:47.000Z,0.00
2022-09-10T03:44:22.000Z,0.00
2022-09-10T03:44:44.000Z,0.00
2022-09-10T03:45:07.000Z,0.00
2022-09-10T03:45:42.000Z,0.00
2022-09-10T03:46:12.000Z,0.00
2022-09-10T03:46:47.000Z,0.00
2022-09-10T03:47:17.000Z,0.00
2022-09-10T03:47:48.000Z,0.00
2022-09-10T03:48:22.000Z,0.00
2022-09-10T03:48:45.000Z,0.00
2022-09-10T03:49:12.000Z,0.00
2022-09-10T03:49:52.000Z,0.00
2022-09-10T03:50:15.000Z,0.00
2022-09-10T03:50:42.000Z,0.00
2022-09-10T03:50:58.000Z,0.00
2022-09-10T03:51:17.000Z,0.00
2022-09-10T03:51:47.000Z,0.00
2022-09-10T03:52:22.000Z,0.00
2022-09-10T03:52:44.000Z,0.00
2022-09-10T03:53:07.000Z,0.00
2022-09-10T03:53:27.000Z,0.00
2022-09-10T03:53:58.000Z,0.00
2022-09-10T03:54:27.000Z,0.00
2022-09-10T03:55:02.000Z,0.00
2022-09-10T03:55:32.000Z,0.00
2022-09-10T03:55:47.000Z,0.00
2022-09-10T03:56:22.000Z,0.00
2022-09-10T03:56:44.000Z,0.00
2022-09-10T03:57:07.000Z,0.00
2022-09-10T03:57:28.000Z,0.00
2022-09-10T03:57:57.000Z,0.00
2022-09-10T03:58:27.000Z,0.00
2022-09-10T03:59:11.000Z,0.00
2022-09-10T03:59:42.000Z,0.00
2022-09-10T04:00:07.000Z,0.00
2022-09-10T04:00:38.000Z,0.00
2022-09-10T04:01:07.000Z,0.00
2022-09-10T04:01:42.000Z,0.00
2022-09-10T04:02:12.000Z,0.00
2022-09-10T04:02:47.000Z,0.00
2022-09-10T04:03:17.000Z,0.00
2022-09-10T04:03:47.000Z,0.00
2022-09-10T04:04:22.000Z,0.00
2022-09-10T04:04:44.000Z,0.00
2022-09-10T04:05:07.000Z,0.00
2022-09-10T04:05:42.000Z,0.00
2022-09-10T04:06:12.000Z,0.00
2022-09-10T04:06:47.000Z,0.00
2022-09-10T04:07:17.000Z,0.00
2022-09-10T04:07:57.000Z,0.00
2022-09-10T04:08:22.000Z,0.00
2022-09-10T04:08:47.000Z,0.00
2022-09-10T04:09:12.000Z,0.00
2022-09-10T04:09:42.000Z,0.00
2022-09-10T04:10:12.000Z,0.00
2022-09-10T04:10:47.000Z,0.00
2022-09-10T04:11:18.000Z,0.00
2022-09-10T04:11:47.000Z,0.00
2022-09-10T04:12:18.000Z,0.00
2022-09-10T04:12:37.000Z,0.00
2022-09-10T04:13:07.000Z,0.00
2022-09-10T04:13:42.000Z,0.00
2022-09-10T04:14:13.000Z,0.00
2022-09-10T04:14:47.000Z,0.00
2022-09-10T04:15:17.000Z,0.00
2022-09-10T04:15:47.000Z,0.00
2022-09-10T04:16:22.000Z,0.00
2022-09-10T04:16:44.000Z,0.00
2022-09-10T04:17:17.000Z,0.00
2022-09-10T04:17:43.000Z,0.00
2022-09-10T04:18:12.000Z,0.00
2022-09-10T04:18:47.000Z,0.00
2022-09-10T04:19:17.000Z,0.00
2022-09-10T04:19:47.000Z,0.00
2022-09-10T04:20:23.000Z,0.00
2022-09-10T04:20:44.000Z,0.00
2022-09-10T04:21:07.000Z,0.00
2022-09-10T04:21:42.000Z,0.00
2022-09-10T04:22:12.000Z,0.00
2022-09-10T04:22:47.000Z,0.00
2022-09-10T04:23:17.000Z,0.00
2022-09-10T04:23:47.000Z,0.00
2022-09-10T04:24:18.000Z,0.00
2022-09-10T04:24:44.000Z,0.00
2022-09-10T04:25:07.000Z,0.00
2022-09-10T04:25:42.000Z,0.00
2022-09-10T04:26:10.000Z,0.00
2022-09-10T04:26:37.000Z,0.00
2022-09-10T04:27:11.000Z,0.00
2022-09-10T04:27:33.000Z,0.00
2022-09-10T04:28:18.000Z,0.00
2022-09-10T04:28:37.000Z,0.00
2022-09-10T04:29:07.000Z,0.00
2022-09-10T04:29:42.000Z,0.00
2022-09-10T04:30:12.000Z,0.00
2022-09-10T04:30:47.000Z,0.00
2022-09-10T04:31:17.000Z,0.00
2022-09-10T04:31:47.000Z,0.00
2022-09-10T04:32:22.000Z,0.00
2022-09-10T04:32:44.000Z,0.00
2022-09-10T04:33:07.000Z,0.00
2022-09-10T04:33:42.000Z,0.00
2022-09-10T04:34:12.000Z,0.00
2022-09-10T04:34:47.000Z,0.00
2022-09-10T04:35:17.000Z,0.00
2022-09-10T04:35:47.000Z,0.00
2022-09-10T04:36:23.000Z,0.00
2022-09-10T04:36:44.000Z,0.00
2022-09-10T04:37:07.000Z,0.00
2022-09-10T04:37:43.000Z,0.00
2022-09-10T04:38:13.000Z,0.00
2022-09-10T04:38:47.000Z,0.00
2022-09-10T04:39:17.000Z,0.00
2022-09-10T04:39:47.000Z,0.00
2022-09-10T04:40:23.000Z,0.00
2022-09-10T04:40:44.000Z,0.00
2022-09-10T04:41:07.000Z,0.00
2022-09-10T04:41:43.000Z,0.00
2022-09-10T04:42:12.000Z,0.00
2022-09-10T04:42:47.000Z,0.00
2022-09-10T04:43:17.000Z,0.00
2022-09-10T04:43:47.000Z,0.00
2022-09-10T04:44:32.000Z,0.00
2022-09-10T04:45:02.000Z,0.00
2022-09-10T04:45:29.000Z,0.00
2022-09-10T04:45:52.000Z,0.00
2022-09-10T04:46:15.000Z,0.00
2022-09-10T04:46:42.000Z,0.00
2022-09-10T04:47:17.000Z,0.00
2022-09-10T04:47:47.000Z,0.00
2022-09-10T04:48:22.000Z,0.00
2022-09-10T04:48:44.000Z,0.00
2022-09-10T04:49:07.000Z,0.00
2022-09-10T04:49:43.000Z,0.00
2022-09-10T04:50:12.000Z,0.00
2022-09-10T04:50:47.000Z,0.00
2022-09-10T04:51:17.000Z,0.00
2022-09-10T04:51:47.000Z,0.00
2022-09-10T04:52:22.000Z,0.00
2022-09-10T04:52:44.000Z,0.00
2022-09-10T04:53:07.000Z,0.00
2022-09-10T04:53:42.000Z,0.00
2022-09-10T04:54:12.000Z,0.00
2022-09-10T04:54:47.000Z,0.00
2022-09-10T04:55:17.000Z,0.36
2022-09-10T04:55:57.000Z,0.00
2022-09-10T04:56:22.000Z,0.00
2022-09-10T04:56:44.000Z,0.36
2022-09-10T04:57:07.000Z,0.00
2022-09-10T04:57:43.000Z,0.00
2022-09-10T04:58:12.000Z,0.00
2022-09-10T04:58:47.000Z,0.36
2022-09-10T04:59:17.000Z,0.36
2022-09-10T04:59:47.000Z,1.71
2022-09-10T05:00:22.000Z,1.71
2022-09-10T05:00:44.000Z,1.71
2022-09-10T05:01:08.000Z,1.71
2022-09-10T05:01:42.000Z,0.85
2022-09-10T05:02:12.000Z,0.85
2022-09-10T05:02:47.000Z,1.22
2022-09-10T05:03:17.000Z,1.71
2022-09-10T05:03:47.000Z,1.22
2022-09-10T05:04:23.000Z,0.85
2022-09-10T05:04:44.000Z,1.22
2022-09-10T05:05:07.000Z,1.22
2022-09-10T05:05:42.000Z,0.85
2022-09-10T05:06:12.000Z,2.08
2022-09-10T05:06:47.000Z,2.57
2022-09-10T05:07:17.000Z,2.57
2022-09-10T05:07:47.000Z,2.57
2022-09-10T05:08:22.000Z,3.43
2022-09-10T05:08:44.000Z,2.94
2022-09-10T05:09:07.000Z,2.94
2022-09-10T05:09:42.000Z,2.57
2022-09-10T05:10:12.000Z,2.57
2022-09-10T05:10:47.000Z,2.94
2022-09-10T05:11:17.000Z,2.94
2022-09-10T05:11:47.000Z,3.43
2022-09-10T05:12:23.000Z,4.28
2022-09-10T05:12:44.000Z,5.14
2022-09-10T05:13:08.000Z,5.99
2022-09-10T05:13:42.000Z,5.14
2022-09-10T05:14:12.000Z,4.28
2022-09-10T05:14:47.000Z,4.77
2022-09-10T05:15:17.000Z,4.77
2022-09-10T05:15:47.000Z,5.63
2022-09-10T05:16:22.000Z,5.63
2022-09-10T05:16:44.000Z,5.14
2022-09-10T05:17:07.000Z,5.63
2022-09-10T05:17:42.000Z,4.77
2022-09-10T05:18:12.000Z,4.28
2022-09-10T05:18:47.000Z,4.28
2022-09-10T05:19:17.000Z,5.63
2022-09-10T05:19:48.000Z,4.77
2022-09-10T05:20:22.000Z,5.14
2022-09-10T05:20:44.000Z,5.14
2022-09-10T05:21:07.000Z,5.99
2022-09-10T05:21:38.000Z,5.99
2022-09-10T05:22:13.000Z,5.99
2022-09-10T05:22:57.000Z,5.99
2022-09-10T05:23:20.000Z,5.99
2022-09-10T05:23:47.000Z,6.48
2022-09-10T05:24:23.000Z,7.34
2022-09-10T05:24:42.000Z,7.34
2022-09-10T05:25:07.000Z,8.56
2022-09-10T05:25:43.000Z,8.56
2022-09-10T05:26:12.000Z,8.56
2022-09-10T05:26:47.000Z,8.56
2022-09-10T05:27:17.000Z,8.56
2022-09-10T05:27:47.000Z,9.05
2022-09-10T05:28:23.000Z,9.05
2022-09-10T05:28:44.000Z,9.54
2022-09-10T05:29:08.000Z,10.39
2022-09-10T05:29:42.000Z,9.54
2022-09-10T05:30:12.000Z,9.54
2022-09-10T05:30:47.000Z,11.62
2022-09-10T05:31:18.000Z,12.97
2022-09-10T05:31:47.000Z,12.11
2022-09-10T05:32:22.000Z,12.11
2022-09-10T05:32:44.000Z,12.97
2022-09-10T05:33:07.000Z,11.62
2022-09-10T05:33:42.000Z,10.39
2022-09-10T05:34:12.000Z,8.56
2022-09-10T05:34:47.000Z,9.05
2022-09-10T05:35:17.000Z,7.70
2022-09-10T05:35:47.000Z,7.70
2022-09-10T05:36:22.000Z,8.56
2022-09-10T05:36:44.000Z,9.05
2022-09-10T05:37:07.000Z,9.91
2022-09-10T05:37:42.000Z,10.39
2022-09-10T05:38:12.000Z,11.25
2022-09-10T05:38:47.000Z,12.97
2022-09-10T05:39:17.000Z,13.33
2022-09-10T05:39:47.000Z,13.33
2022-09-10T05:40:32.000Z,13.82
2022-09-10T05:41:02.000Z,13.82
2022-09-10T05:41:28.000Z,13.82
2022-09-10T05:41:52.000Z,13.33
2022-09-10T05:42:15.000Z,12.97
2022-09-10T05:42:47.000Z,14.31
2022-09-10T05:43:17.000Z,16.88
2022-09-10T05:43:47.000Z,17.25
2022-09-10T05:44:22.000Z,18.11
2022-09-10T05:44:44.000Z,18.60
2022-09-10T05:45:07.000Z,20.31
2022-09-10T05:45:42.000Z,21.16
2022-09-10T05:46:12.000Z,22.02
2022-09-10T05:46:47.000Z,22.87
2022-09-10T05:47:17.000Z,23.36
2022-09-10T05:47:47.000Z,25.07
2022-09-10T05:48:23.000Z,29.48
2022-09-10T05:48:44.000Z,29.85
2022-09-10T05:49:07.000Z,31.56
2022-09-10T05:49:42.000Z,29.48
2022-09-10T05:50:12.000Z,28.14
2022-09-10T05:50:47.000Z,25.94
2022-09-10T05:51:18.000Z,24.71
2022-09-10T05:51:42.000Z,24.22
2022-09-10T05:52:07.000Z,22.02
2022-09-10T05:52:37.000Z,19.94
2022-09-10T05:53:07.000Z,19.94
2022-09-10T05:53:42.000Z,20.31
2022-09-10T05:54:12.000Z,21.65
2022-09-10T05:54:47.000Z,19.94
2022-09-10T05:55:17.000Z,20.80
2022-09-10T05:55:47.000Z,21.65
2022-09-10T05:56:22.000Z,28.63
2022-09-10T05:56:44.000Z,30.70
2022-09-10T05:57:07.000Z,33.39
2022-09-10T05:57:42.000Z,39.88
2022-09-10T05:58:12.000Z,42.45
2022-09-10T05:58:47.000Z,44.65
2022-09-10T05:59:17.000Z,45.51
2022-09-10T05:59:47.000Z,45.51
2022-09-10T06:00:32.000Z,43.80
2022-09-10T06:01:02.000Z,42.94
2022-09-10T06:01:28.000Z,41.10
2022-09-10T06:01:57.000Z,40.24
2022-09-10T06:02:28.000Z,39.02
2022-09-10T06:03:02.000Z,37.68
2022-09-10T06:03:32.000Z,36.33
2022-09-10T06:04:03.000Z,35.11
2022-09-10T06:04:22.000Z,34.62
2022-09-10T06:04:44.000Z,35.48
2022-09-10T06:05:07.000Z,33.76
2022-09-10T06:05:42.000Z,33.39
2022-09-10T06:06:13.000Z,30.70
2022-09-10T06:06:48.000Z,29.48
2022-09-10T06:07:17.000Z,27.65
2022-09-10T06:07:47.000Z,26.79
2022-09-10T06:08:23.000Z,25.56
2022-09-10T06:08:44.000Z,25.07
2022-09-10T06:09:07.000Z,22.87
2022-09-10T06:09:44.000Z,22.87
2022-09-10T06:10:10.000Z,21.65
2022-09-10T06:10:37.000Z,20.80
2022-09-10T06:11:02.000Z,19.45
2022-09-10T06:11:32.000Z,18.11
2022-09-10T06:12:02.000Z,14.31
2022-09-10T06:12:22.000Z,14.31
2022-09-10T06:12:44.000Z,12.48
2022-09-10T06:13:07.000Z,12.48
2022-09-10T06:13:42.000Z,10.39
2022-09-10T06:14:12.000Z,9.54
2022-09-10T06:14:47.000Z,8.56
2022-09-10T06:15:17.000Z,6.85
2022-09-10T06:15:48.000Z,6.85
2022-09-10T06:16:23.000Z,6.85
2022-09-10T06:16:44.000Z,7.34
2022-09-10T06:17:07.000Z,6.48
2022-09-10T06:17:42.000Z,5.63
2022-09-10T06:18:12.000Z,6.85
2022-09-10T06:18:57.000Z,6.85
2022-09-10T06:19:27.000Z,6.48
2022-09-10T06:19:57.000Z,6.48
2022-09-10T06:20:23.000Z,6.48
2022-09-10T06:20:44.000Z,6.48
2022-09-10T06:21:07.000Z,6.85
2022-09-10T06:21:42.000Z,6.48
2022-09-10T06:22:12.000Z,5.63
2022-09-10T06:22:48.000Z,5.63
2022-09-10T06:23:18.000Z,5.63
2022-09-10T06:23:47.000Z,5.63
2022-09-10T06:24:22.000Z,6.48
2022-09-10T06:24:44.000Z,5.63
2022-09-10T06:25:07.000Z,5.99
2022-09-10T06:25:27.000Z,5.63
2022-09-10T06:25:57.000Z,5.99
2022-09-10T06:26:27.000Z,6.85
2022-09-10T06:27:02.000Z,6.48
2022-09-10T06:27:32.000Z,5.14
2022-09-10T06:28:02.000Z,6.48
2022-09-10T06:28:22.000Z,6.48
2022-09-10T06:28:47.000Z,5.63
2022-09-10T06:29:10.000Z,6.85
2022-09-10T06:29:42.000Z,7.70
2022-09-10T06:30:12.000Z,6.85